Time;durP1;ratioP1;P1;durP2;ratioP2;P2;SDS_P1;SDS_P2;PMS_P1;PMS_P2;Temp;Humidity;BMP_temperature;BMP_pressure;BME280_temperature;BME280_humidity;BME280_pressure;Samples;Min_cycle;Max_cycle;Signal;HPM_P1;HPM_P2
2023/05/23 00:02:07;;;;;;;44.28;38.67;;;16.90;99.90;;;16.12;100.00;97741.56;4969728;28;20556;-78
2023/05/23 00:04:35;;;;;;;53.53;40.67;;;16.90;99.90;;;16.15;100.00;97749.22;4987661;28;20529;-78
2023/05/23 00:07:03;;;;;;;52.72;42.55;;;16.90;99.90;;;16.13;100.00;97743.25;4981194;28;20054;-78
2023/05/23 00:09:30;;;;;;;49.63;40.15;;;16.90;99.90;;;16.15;100.00;97742.22;4986645;28;20128;-78
2023/05/23 00:11:58;;;;;;;44.85;38.30;;;16.90;99.90;;;16.10;100.00;97739.03;4966411;28;20042;-77
2023/05/23 00:14:25;;;;;;;48.42;40.67;;;16.90;99.90;;;16.13;100.00;97745.88;4989791;28;20050;-78
2023/05/23 00:16:53;;;;;;;51.35;41.15;;;16.90;99.90;;;16.12;100.00;97742.41;5008362;28;20054;-77
2023/05/23 00:19:21;;;;;;;50.95;40.00;;;16.90;99.90;;;16.07;100.00;97741.84;4984087;28;20065;-78
2023/05/23 00:21:49;;;;;;;51.97;42.53;;;16.90;99.90;;;16.04;100.00;97742.88;4974102;28;20049;-77
2023/05/23 00:24:17;;;;;;;49.55;39.78;;;16.80;99.90;;;15.99;100.00;97747.56;4987453;28;20050;-78
2023/05/23 00:26:45;;;;;;;47.05;38.20;;;16.80;99.90;;;15.95;100.00;97751.31;4995545;28;20049;-77
2023/05/23 00:29:17;;;;;;;45.75;38.65;;;16.80;99.90;;;15.90;100.00;97745.53;4986811;28;20133;-78
2023/05/23 00:31:45;;;;;;;48.15;39.75;;;16.80;99.90;;;15.90;100.00;97748.13;5021542;28;20050;-77
2023/05/23 00:34:16;;;;;;;51.67;39.63;;;16.80;99.90;;;15.87;100.00;97748.31;4998108;28;20505;-77
2023/05/23 00:36:46;;;;;;;46.63;39.35;;;16.70;99.90;;;15.89;100.00;97744.66;4994396;28;20125;-78
2023/05/23 00:39:18;;;;;;;46.42;40.45;;;16.70;99.90;;;15.86;100.00;97746.63;4991505;28;20920;-77
2023/05/23 00:41:49;;;;;;;49.47;40.58;;;16.70;99.90;;;15.74;100.00;97745.63;5003394;28;20499;-79
2023/05/23 00:44:19;;;;;;;45.43;39.97;;;16.70;99.90;;;15.73;100.00;97745.69;5003772;28;20066;-78
2023/05/23 00:46:53;;;;;;;45.80;39.33;;;16.60;99.90;;;15.61;100.00;97750.72;5007284;28;20300;-77
2023/05/23 00:49:21;;;;;;;44.80;39.08;;;16.60;99.90;;;15.51;100.00;97751.34;5006621;28;20104;-77
2023/05/23 00:51:50;;;;;;;46.03;39.63;;;16.50;99.90;;;15.35;100.00;97756.63;4987762;28;20049;-78
2023/05/23 00:54:24;;;;;;;44.25;39.28;;;;;;;15.32;100.00;97762.91;4993093;28;20059;-78
2023/05/23 00:56:52;;;;;;;52.60;41.75;;;16.30;99.90;;;15.31;100.00;97771.69;4988553;28;20046;-77
2023/05/23 00:59:20;;;;;;;53.85;43.88;;;16.20;99.90;;;15.29;100.00;97778.78;5018462;28;20049;-78
2023/05/23 01:01:51;;;;;;;49.53;39.35;;;16.20;99.90;;;15.34;100.00;97789.81;4981794;28;20065;-78
2023/05/23 01:04:19;;;;;;;50.90;42.28;;;16.20;99.90;;;15.38;100.00;97790.47;5005414;28;20136;-78
2023/05/23 01:06:48;;;;;;;54.40;43.88;;;16.20;99.90;;;15.32;100.00;97794.28;4995875;28;20083;-77
2023/05/23 01:09:16;;;;;;;48.80;41.63;;;16.20;99.90;;;15.38;100.00;97795.72;4992341;28;20055;-78
2023/05/23 01:12:25;;;;;;;53.30;42.22;;;16.20;99.90;;;15.45;100.00;97797.88;5003879;28;20046;-78
2023/05/23 01:15:09;;;;;;;51.85;42.42;;;16.20;99.90;;;15.48;100.00;97796.84;4966144;28;20077;-78
2023/05/23 01:17:48;;;;;;;46.72;39.83;;;16.30;99.90;;;15.57;100.00;97795.47;4968953;28;20070;-78
2023/05/23 01:20:40;;;;;;;55.55;43.50;;;16.30;99.90;;;15.60;100.00;97795.28;4969381;28;20097;-78
2023/05/23 01:23:54;;;;;;;57.33;44.50;;;16.30;99.90;;;15.61;100.00;97796.97;4985760;28;20050;-77
2023/05/23 01:26:40;;;;;;;53.63;41.25;;;16.30;99.90;;;15.65;100.00;97795.88;4990162;28;20501;-77
2023/05/23 01:29:21;;;;;;;59.20;44.10;;;16.40;99.90;;;15.71;100.00;97803.34;5010892;28;20119;-78
2023/05/23 01:31:53;;;;;;;58.28;43.92;;;16.40;99.90;;;15.72;100.00;97797.19;4996452;28;20038;-78
2023/05/23 01:34:21;;;;;;;62.65;45.58;;;16.40;99.90;;;15.78;100.00;97807.31;4981328;28;20127;-77
2023/05/23 01:36:54;;;;;;;52.50;43.70;;;16.40;99.90;;;15.81;100.00;97806.28;4991686;28;20069;-77
2023/05/23 01:39:22;;;;;;;;;;;16.50;99.90;;;15.81;100.00;97791.41;5011699;28;20053;-78
2023/05/23 01:41:50;;;;;;;49.00;41.60;;;16.50;99.90;;;15.78;100.00;97791.63;4990358;28;20028;-78
2023/05/23 01:44:19;;;;;;;51.95;43.08;;;16.50;99.90;;;15.79;100.00;97790.66;4978407;28;20085;-78
2023/05/23 01:46:47;;;;;;;51.10;41.58;;;16.50;99.90;;;15.78;100.00;97793.38;4998782;28;20052;-78
2023/05/23 01:49:17;;;;;;;52.15;41.53;;;16.50;99.90;;;15.74;100.00;97782.25;4977392;28;20077;-78
2023/05/23 01:51:45;;;;;;;53.10;42.97;;;16.50;99.90;;;15.63;100.00;97785.47;4969132;28;20046;-78
2023/05/23 01:54:15;;;;;;;53.05;42.42;;;16.40;99.90;;;15.64;100.00;97786.31;5005624;28;20037;-77
2023/05/23 01:56:44;;;;;;;47.83;40.90;;;16.50;99.90;;;15.69;100.00;97784.25;5000339;28;20077;-78
2023/05/23 01:59:11;;;;;;;56.90;45.15;;;16.50;99.90;;;15.72;100.00;97783.28;5002477;28;20144;-78
2023/05/23 02:01:40;;;;;;;47.33;41.60;;;16.50;99.90;;;15.78;100.00;97782.88;5006466;28;20057;-77
2023/05/23 02:04:08;;;;;;;52.08;42.05;;;16.50;99.90;;;15.79;100.00;97780.19;4999241;28;20168;-77
2023/05/23 02:06:35;;;;;;;48.70;41.13;;;16.50;99.90;;;15.79;100.00;97768.88;4990868;28;20583;-78
2023/05/23 02:09:02;;;;;;;53.38;41.85;;;16.50;99.90;;;15.73;100.00;97771.88;5009696;28;20060;-78
2023/05/23 02:11:30;;;;;;;46.63;40.85;;;16.50;99.90;;;15.67;100.00;97767.81;5010429;28;20146;-77
2023/05/23 02:13:57;;;;;;;45.75;40.08;;;16.40;99.90;;;15.63;100.00;97780.25;5004768;28;20513;-79
2023/05/23 02:16:25;;;;;;;48.90;40.92;;;16.50;99.90;;;15.64;100.00;97774.06;5004295;28;20137;-79
2023/05/23 02:18:55;;;;;;;47.75;40.95;;;16.40;99.90;;;15.58;100.00;97776.22;4984306;28;20042;-77
2023/05/23 02:21:23;;;;;;;45.53;40.58;;;16.40;99.90;;;15.54;100.00;97780.78;5002445;28;20513;-78
2023/05/23 02:23:50;;;;;;;44.88;40.00;;;16.40;99.90;;;15.50;100.00;97778.44;4996110;28;20540;-78
2023/05/23 02:26:17;;;;;;;44.85;39.97;;;16.30;99.90;;;15.50;100.00;97781.06;5011328;28;20078;-77
2023/05/23 02:28:44;;;;;;;45.42;39.30;;;16.40;99.90;;;15.49;100.00;97788.06;5010412;28;20051;-77
2023/05/23 02:31:11;;;;;;;44.13;37.33;;;16.30;99.90;;;15.57;100.00;97787.63;5007155;28;20082;-78
2023/05/23 02:33:39;;;;;;;52.33;41.60;;;16.40;99.90;;;15.56;100.00;97781.53;4992748;28;20042;-77
2023/05/23 02:36:06;;;;;;;47.47;41.50;;;16.30;99.90;;;15.51;100.00;97787.97;5004110;28;20050;-78
2023/05/23 02:38:33;;;;;;;44.72;39.92;;;16.40;99.90;;;15.48;100.00;97778.53;4993756;28;20042;-77
2023/05/23 02:41:00;;;;;;;48.78;37.80;;;16.30;99.90;;;15.44;100.00;97784.88;4983283;28;20152;-78
2023/05/23 02:43:27;;;;;;;47.92;38.45;;;16.20;99.90;;;15.42;100.00;97792.00;4991981;28;20465;-78
2023/05/23 02:45:54;;;;;;;45.65;36.67;;;16.20;99.90;;;15.36;100.00;97793.19;4994513;28;20059;-77
2023/05/23 02:48:22;;;;;;;45.92;38.78;;;16.10;99.90;;;15.37;100.00;97797.50;5011222;28;20049;-78
2023/05/23 02:50:49;;;;;;;47.90;38.30;;;16.10;99.90;;;15.33;100.00;97797.75;4995730;28;20073;-77
2023/05/23 02:53:17;;;;;;;44.10;38.67;;;16.10;99.90;;;15.31;100.00;97790.00;4995019;28;20129;-78
2023/05/23 02:55:44;;;;;;;45.65;37.63;;;16.00;99.90;;;15.27;100.00;97794.56;4990616;28;20145;-78
2023/05/23 02:58:11;;;;;;;43.28;36.90;;;16.00;99.90;;;15.26;100.00;97787.66;4994646;28;20050;-77
2023/05/23 03:00:39;;;;;;;40.33;35.13;;;16.10;99.90;;;15.20;100.00;97784.53;5008376;28;20065;-78
2023/05/23 03:03:06;;;;;;;42.13;37.20;;;16.00;99.90;;;15.16;100.00;97777.81;5000794;28;20053;-78
2023/05/23 03:05:33;;;;;;;40.63;35.33;;;16.00;99.90;;;15.06;100.00;97777.50;4989359;28;20049;-78
2023/05/23 03:08:00;;;;;;;41.97;36.55;;;15.90;99.90;;;15.01;100.00;97785.59;4987544;28;21490;-77
2023/05/23 03:10:28;;;;;;;43.10;37.20;;;15.90;99.90;;;15.01;100.00;97793.44;5006078;28;20145;-78
2023/05/23 03:12:55;;;;;;;47.05;38.75;;;15.80;99.90;;;14.93;100.00;97790.41;4991153;28;20149;-77
2023/05/23 03:15:22;;;;;;;40.92;36.63;;;15.80;99.90;;;14.94;100.00;97799.09;4996991;28;20073;-77
2023/05/23 03:17:49;;;;;;;42.00;36.22;;;15.70;99.90;;;14.94;100.00;97792.13;4994036;28;20481;-78
2023/05/23 03:20:16;;;;;;;41.53;34.85;;;15.70;99.90;;;14.94;100.00;97794.72;4992234;28;20052;-78
2023/05/23 03:22:44;;;;;;;40.05;35.65;;;15.70;99.90;;;14.86;100.00;97794.31;4989853;28;20164;-78
2023/05/23 03:25:11;;;;;;;41.45;36.22;;;15.60;99.90;;;14.83;100.00;97792.72;4992470;28;20073;-77
2023/05/23 03:27:38;;;;;;;38.50;34.38;;;15.70;99.90;;;14.77;100.00;97793.06;4994428;28;20524;-78
2023/05/23 03:30:06;;;;;;;41.65;36.33;;;15.70;99.90;;;14.75;100.00;97797.53;4995894;28;20171;-77
2023/05/23 03:32:34;;;;;;;43.85;36.33;;;15.60;99.90;;;14.71;100.00;97797.78;5002587;28;20046;-77
2023/05/23 03:35:02;;;;;;;38.85;34.28;;;15.60;99.90;;;14.73;100.00;97794.16;5004562;28;20096;-77
2023/05/23 03:37:29;;;;;;;39.95;35.60;;;15.50;99.90;;;14.68;100.00;97803.19;5012900;28;20049;-77
2023/05/23 03:39:56;;;;;;;37.83;33.45;;;15.60;99.90;;;14.66;100.00;97813.72;4997101;28;20084;-78
2023/05/23 03:42:23;;;;;;;37.17;33.17;;;15.50;99.90;;;14.65;100.00;97814.66;5005321;28;20073;-77
2023/05/23 03:44:50;;;;;;;39.72;33.33;;;15.50;99.90;;;14.66;100.00;97823.31;5007444;28;20128;-78
2023/05/23 03:47:17;;;;;;;44.10;36.45;;;15.50;99.90;;;14.63;100.00;97822.56;5002971;28;20051;-77
2023/05/23 03:49:44;;;;;;;37.58;33.38;;;15.40;99.90;;;14.61;100.00;97824.41;5003060;28;20139;-78
2023/05/23 03:52:12;;;;;;;36.92;32.95;;;15.40;99.90;;;14.56;100.00;97823.84;5007895;28;20771;-78
2023/05/23 03:54:39;;;;;;;39.97;34.78;;;15.40;99.90;;;14.56;100.00;97826.44;5007717;28;20050;-77
2023/05/23 03:57:06;;;;;;;39.33;35.05;;;15.40;99.90;;;14.50;100.00;97829.34;5007708;28;20188;-78
2023/05/23 03:59:34;;;;;;;43.65;36.30;;;15.30;99.90;;;14.44;100.00;97835.75;5003150;28;20186;-78
2023/05/23 04:02:03;;;;;;;41.67;35.17;;;15.20;99.90;;;14.41;100.00;97842.91;5009043;28;20120;-78
2023/05/23 04:04:30;;;;;;;40.00;34.95;;;15.20;99.90;;;14.33;100.00;97845.94;5009588;28;20042;-78
2023/05/23 04:06:58;;;;;;;38.95;34.65;;;15.30;99.90;;;14.32;100.00;97844.28;4985668;28;20058;-78
2023/05/23 04:09:26;;;;;;;38.63;34.42;;;15.20;99.90;;;14.29;100.00;97840.97;5009566;28;20089;-78
2023/05/23 04:11:53;;;;;;;36.47;32.60;;;15.20;99.90;;;14.25;100.00;97847.28;5006701;28;20466;-77
2023/05/23 04:14:21;;;;;;;33.28;29.33;;;15.10;99.90;;;14.31;100.00;97841.72;5004620;28;20684;-77
2023/05/23 04:16:48;;;;;;;35.15;29.92;;;15.10;99.90;;;14.23;100.00;97844.72;4990839;28;20098;-78
2023/05/23 04:19:15;;;;;;;31.92;27.55;;;15.10;99.90;;;14.28;100.00;97839.25;4989435;28;20053;-77
2023/05/23 04:21:43;;;;;;;34.38;28.30;;;15.10;99.90;;;14.22;100.00;97837.84;4993076;28;20057;-77
2023/05/23 04:24:10;;;;;;;31.75;28.45;;;15.10;99.90;;;14.25;100.00;97836.81;5001413;28;20054;-79
2023/05/23 04:26:38;;;;;;;33.63;27.52;;;15.10;99.90;;;14.22;100.00;97830.84;5000984;28;20074;-78
2023/05/23 04:29:11;;;;;;;39.55;29.15;;;15.00;99.90;;;14.18;100.00;97823.25;4990072;28;20050;-78
2023/05/23 04:31:38;;;;;;;33.80;27.40;;;15.00;99.90;;;14.12;100.00;97815.78;4985412;28;20053;-78
2023/05/23 04:34:06;;;;;;;33.60;27.95;;;15.00;99.90;;;14.20;100.00;97818.78;5004096;28;20041;-78
2023/05/23 04:36:36;;;;;;;35.75;27.83;;;15.00;99.90;;;14.22;100.00;97812.56;4994028;28;20083;-78
2023/05/23 04:39:05;;;;;;;37.47;29.40;;;15.00;99.90;;;14.18;100.00;97818.88;5009408;28;20081;-78
2023/05/23 04:41:32;;;;;;;33.40;28.35;;;15.00;99.90;;;14.22;100.00;97824.78;4996488;28;20045;-78
2023/05/23 04:43:59;;;;;;;35.70;27.70;;;15.10;99.90;;;14.17;100.00;97822.41;5008489;28;20060;-77
2023/05/23 04:46:26;;;;;;;34.95;27.25;;;15.00;99.90;;;14.32;100.00;97827.72;4972255;28;20108;-77
2023/05/23 04:48:57;;;;;;;33.33;26.58;;;15.00;99.90;;;14.33;100.00;97821.59;5003760;28;20137;-78
2023/05/23 04:51:25;;;;;;;34.22;26.70;;;15.00;99.90;;;14.47;100.00;97823.47;4986272;28;20423;-77
2023/05/23 04:53:53;;;;;;;31.00;25.67;;;15.10;99.90;;;14.44;100.00;97827.09;5000860;28;20046;-78
2023/05/23 04:56:21;;;;;;;30.42;22.58;;;15.20;99.90;;;14.44;100.00;97820.09;5009798;28;20055;-78
2023/05/23 04:58:48;;;;;;;28.20;22.70;;;15.20;99.90;;;14.46;100.00;97806.97;5004641;28;20498;-78
2023/05/23 05:01:15;;;;;;;24.00;19.83;;;15.20;99.90;;;14.53;100.00;97808.31;4983146;28;20105;-77
2023/05/23 05:03:42;;;;;;;24.90;19.50;;;15.20;99.90;;;14.55;100.00;97809.09;5004133;28;20047;-78
2023/05/23 05:06:11;;;;;;;24.95;20.50;;;15.20;99.90;;;14.52;100.00;97801.38;5006437;28;20053;-79
2023/05/23 05:08:39;;;;;;;30.05;20.13;;;15.30;99.90;;;14.54;100.00;97802.16;5000126;28;20145;-77
2023/05/23 05:11:07;;;;;;;23.73;18.05;;;15.30;99.90;;;14.66;100.00;97805.03;4998694;28;20049;-77
2023/05/23 05:13:35;;;;;;;23.40;17.48;;;15.40;99.90;;;14.72;100.00;97805.53;5009466;28;20725;-77
2023/05/23 05:16:02;;;;;;;20.35;15.38;;;15.30;99.90;;;14.57;100.00;97795.94;4970153;28;20053;-77
2023/05/23 05:18:29;;;;;;;20.17;15.70;;;15.20;99.90;;;14.59;100.00;97791.47;4997937;28;20073;-77
2023/05/23 05:20:57;;;;;;;18.92;15.05;;;15.30;99.90;;;14.60;100.00;97788.78;4996871;28;20058;-77
2023/05/23 05:23:27;;;;;;;18.27;14.18;;;15.40;99.90;;;14.62;100.00;97792.16;4978320;28;20148;-77
2023/05/23 05:25:55;;;;;;;17.85;13.75;;;15.40;99.90;;;14.58;100.00;97795.84;4987756;28;20047;-77
2023/05/23 05:28:22;;;;;;;15.32;12.30;;;15.50;99.90;;;14.55;100.00;97789.94;4972937;28;20574;-77
2023/05/23 05:30:52;;;;;;;16.42;13.05;;;15.40;99.90;;;14.61;100.00;97790.44;4978889;28;20075;-77
2023/05/23 05:33:24;;;;;;;15.30;12.33;;;15.50;99.90;;;14.64;100.00;97784.22;4994858;28;20454;-78
2023/05/23 05:35:52;;;;;;;15.43;12.13;;;15.50;99.90;;;14.63;100.00;97778.16;4962094;28;20302;-77
2023/05/23 05:38:19;;;;;;;17.65;12.43;;;15.50;99.90;;;14.66;100.00;97774.53;4986004;28;20049;-78
2023/05/23 05:40:46;;;;;;;18.70;11.85;;;15.40;99.90;;;14.72;100.00;97778.56;4977953;28;20510;-78
2023/05/23 05:43:13;;;;;;;14.27;11.40;;;15.50;99.90;;;14.82;100.00;97771.88;4976487;28;20134;-77
2023/05/23 05:45:43;;;;;;;13.68;11.02;;;15.60;99.90;;;14.86;100.00;97770.78;4987417;28;20137;-78
2023/05/23 05:48:11;;;;;;;13.70;11.05;;;15.60;99.90;;;15.02;100.00;97774.22;4980060;28;20130;-78
2023/05/23 05:50:39;;;;;;;14.63;10.80;;;15.70;99.90;;;15.13;100.00;97772.75;4992692;28;20058;-77
2023/05/23 05:53:07;;;;;;;16.67;11.25;;;15.80;99.90;;;15.08;100.00;97766.97;4989553;28;20053;-78
2023/05/23 05:55:34;;;;;;;13.13;10.52;;;15.80;99.90;;;15.24;100.00;97772.97;4989582;28;20046;-77
2023/05/23 05:58:01;;;;;;;15.70;11.60;;;15.80;99.90;;;15.10;100.00;97767.69;4971620;28;20232;-78
2023/05/23 06:00:29;;;;;;;15.60;11.23;;;15.90;99.90;;;15.01;100.00;97774.31;4978498;28;20046;-78
2023/05/23 06:02:56;;;;;;;13.68;9.75;;;15.90;99.90;;;15.16;100.00;97780.41;4989542;28;20360;-77
2023/05/23 06:05:25;;;;;;;14.55;11.38;;;15.90;99.90;;;15.03;100.00;97777.69;4990353;28;20146;-78
2023/05/23 06:07:52;;;;;;;17.40;11.35;;;15.80;99.90;;;15.10;100.00;97775.53;4959731;28;20439;-78
2023/05/23 06:10:19;;;;;;;14.63;11.15;;;15.90;99.90;;;15.00;100.00;97776.06;4964583;28;20110;-78
2023/05/23 06:12:48;;;;;;;15.95;11.25;;;15.80;99.90;;;15.11;100.00;97770.22;4960382;28;20055;-78
2023/05/23 06:15:16;;;;;;;11.88;9.45;;;15.90;99.90;;;15.28;100.00;97769.25;4988446;28;20046;-78
2023/05/23 06:17:43;;;;;;;14.43;10.90;;;15.90;99.90;;;15.19;100.00;97775.00;5005987;28;20053;-78
2023/05/23 06:20:11;;;;;;;14.23;10.82;;;16.00;99.90;;;15.18;100.00;97760.25;4997319;28;20129;-78
2023/05/23 06:22:39;;;;;;;13.07;10.88;;;16.00;99.90;;;15.17;100.00;97782.97;5007614;28;20068;-77
2023/05/23 06:25:06;;;;;;;14.35;11.55;;;16.00;99.90;;;15.06;100.00;97788.78;4995819;28;20442;-78
2023/05/23 06:27:34;;;;;;;15.32;11.88;;;16.00;99.90;;;15.19;100.00;97790.69;5003739;28;20042;-77
2023/05/23 06:30:05;;;;;;;16.90;11.80;;;16.00;99.90;;;15.11;100.00;97788.53;4999463;28;20057;-78
2023/05/23 06:32:32;;;;;;;15.55;12.38;;;15.90;99.90;;;15.05;100.00;97791.50;4990063;28;20133;-79
2023/05/23 06:34:59;;;;;;;14.70;10.98;;;15.90;99.90;;;15.13;100.00;97796.28;5013589;28;20046;-78
2023/05/23 06:37:27;;;;;;;17.65;12.15;;;16.00;99.90;;;15.32;100.00;97790.84;4989110;28;20046;-78
2023/05/23 06:39:54;;;;;;;15.70;11.18;;;16.00;99.90;;;15.32;100.00;97788.22;5007019;28;20104;-78
2023/05/23 06:42:21;;;;;;;14.73;12.00;;;16.00;99.90;;;15.17;100.00;97803.03;4996993;28;20080;-78
2023/05/23 06:44:48;;;;;;;16.45;10.73;;;16.00;99.90;;;15.22;100.00;97806.22;5005097;28;20129;-78
2023/05/23 06:47:15;;;;;;;13.00;11.02;;;15.90;99.90;;;15.27;100.00;97806.78;5008790;28;20073;-77
2023/05/23 06:49:42;;;;;;;16.17;12.02;;;16.10;99.90;;;15.20;100.00;97815.91;4992033;28;20084;-78
2023/05/23 06:52:10;;;;;;;14.95;10.57;;;16.10;99.90;;;15.27;100.00;97812.03;5003532;28;20084;-78
2023/05/23 06:54:37;;;;;;;15.50;12.02;;;16.10;99.90;;;15.08;100.00;97812.25;4999637;28;20046;-78
2023/05/23 06:57:04;;;;;;;16.27;11.70;;;16.00;99.90;;;15.20;100.00;97829.84;5005366;28;20115;-78
2023/05/23 06:59:32;;;;;;;16.98;11.70;;;16.00;99.90;;;15.17;100.00;97837.03;4991645;28;20053;-77
2023/05/23 07:01:59;;;;;;;13.27;10.50;;;15.90;99.90;;;15.11;100.00;97835.59;4990921;28;20439;-78
2023/05/23 07:04:26;;;;;;;12.18;9.23;;;15.90;99.90;;;15.19;100.00;97832.53;4983534;28;20133;-77
2023/05/23 07:06:53;;;;;;;12.50;9.02;;;16.00;99.90;;;15.31;100.00;97828.38;5001332;28;20403;-77
2023/05/23 07:09:20;;;;;;;12.20;7.00;;;16.10;99.90;;;15.18;100.00;97823.00;4984674;28;20053;-78
2023/05/23 07:11:47;;;;;;;8.30;5.60;;;16.10;99.90;;;15.53;100.00;97827.97;4995359;28;20077;-78
2023/05/23 07:14:15;;;;;;;7.88;5.80;;;16.20;99.90;;;15.33;100.00;97813.47;4980481;28;20061;-79
2023/05/23 07:16:42;;;;;;;8.70;5.70;;;16.20;99.90;;;15.37;100.00;97825.41;5009025;28;20054;-78
2023/05/23 07:19:09;;;;;;;5.32;4.03;;;16.10;99.90;;;15.54;100.00;97822.66;4986504;28;20446;-78
2023/05/23 07:21:36;;;;;;;5.55;3.47;;;16.20;99.90;;;15.41;100.00;97819.91;4987201;28;20123;-78
2023/05/23 07:24:05;;;;;;;4.20;3.47;;;16.20;99.90;;;15.47;100.00;97816.09;4992209;28;20140;-78
2023/05/23 07:26:32;;;;;;;8.90;3.60;;;16.30;99.90;;;15.71;100.00;97816.44;4987935;28;20073;-78
2023/05/23 07:28:59;;;;;;;6.90;3.50;;;16.40;99.90;;;15.64;100.00;97828.19;5005944;28;20054;-78
2023/05/23 07:31:26;;;;;;;4.95;3.35;;;16.30;99.90;;;15.80;100.00;97830.75;4978447;28;20095;-78
2023/05/23 07:33:54;;;;;;;5.13;3.65;;;16.40;99.90;;;15.88;100.00;97810.22;4980157;28;20107;-78
2023/05/23 07:36:23;;;;;;;4.72;3.42;;;16.50;99.90;;;15.96;100.00;97817.59;4997690;28;20054;-78
2023/05/23 07:38:52;;;;;;;7.53;4.70;;;16.60;99.90;;;15.69;100.00;97816.53;5006632;28;20068;-78
2023/05/23 07:41:19;;;;;;;5.82;3.90;;;16.70;99.90;;;15.87;100.00;97825.09;5016278;28;20104;-78
2023/05/23 07:43:49;;;;;;;5.07;3.53;;;16.70;99.90;;;15.67;100.00;97830.63;5013731;28;20045;-78
2023/05/23 07:46:16;;;;;;;5.05;4.03;;;16.80;99.90;;;15.76;100.00;97824.00;5007409;28;20474;-78
2023/05/23 07:48:44;;;;;;;5.47;4.35;;;16.70;99.90;;;15.74;100.00;97829.38;4991071;28;20494;-78
2023/05/23 07:51:12;;;;;;;4.47;3.90;;;16.60;99.90;;;15.58;100.00;97824.16;4996269;28;20057;-78
2023/05/23 07:53:39;;;;;;;4.90;4.00;;;16.50;99.90;;;15.64;100.00;97829.00;4998604;28;20124;-79
2023/05/23 07:56:06;;;;;;;5.22;3.95;;;;;;;15.53;100.00;97839.28;4995245;28;20086;-78
2023/05/23 07:58:34;;;;;;;4.55;3.78;;;16.50;99.90;;;15.58;100.00;97836.41;5003119;28;20097;-78
2023/05/23 08:01:02;;;;;;;7.07;4.30;;;16.40;99.90;;;15.51;100.00;97843.78;4985120;28;20505;-79
2023/05/23 08:03:30;;;;;;;5.13;3.67;;;16.30;99.90;;;15.33;100.00;97843.06;5002314;28;20589;-78
2023/05/23 08:05:57;;;;;;;7.22;4.20;;;16.30;99.90;;;15.51;100.00;97835.94;5003844;28;20132;-78
2023/05/23 08:08:24;;;;;;;5.43;3.80;;;16.30;99.90;;;15.48;100.00;97838.69;4998428;28;20048;-78
2023/05/23 08:10:51;;;;;;;5.95;4.25;;;16.30;99.90;;;15.39;100.00;97845.28;5006380;28;20046;-78
2023/05/23 08:13:20;;;;;;;4.57;3.42;;;16.40;99.90;;;15.40;100.00;97849.63;4990013;28;20143;-78
2023/05/23 08:15:47;;;;;;;4.95;3.83;;;16.40;99.90;;;15.41;100.00;97847.84;4976916;28;20471;-77
2023/05/23 08:18:15;;;;;;;6.10;4.35;;;16.30;99.90;;;15.41;100.00;97847.84;4988164;28;20060;-78
2023/05/23 08:20:42;;;;;;;5.35;4.22;;;16.30;99.90;;;15.79;100.00;97848.25;5008088;28;20438;-78
2023/05/23 08:23:11;;;;;;;6.25;3.92;;;16.30;99.90;;;15.59;100.00;97852.00;4993688;28;20073;-78
2023/05/23 08:25:39;;;;;;;5.28;4.28;;;16.40;99.90;;;15.76;100.00;97842.34;4997904;28;20588;-78
2023/05/23 08:28:06;;;;;;;5.32;3.78;;;16.50;99.90;;;15.76;100.00;97850.19;5009582;28;20056;-78
2023/05/23 08:30:36;;;;;;;5.43;3.97;;;16.50;99.90;;;15.70;100.00;97848.75;5005105;28;20128;-78
2023/05/23 08:33:03;;;;;;;4.85;3.88;;;16.50;99.90;;;15.85;100.00;97847.03;5000864;28;20045;-78
2023/05/23 08:35:34;;;;;;;4.85;3.80;;;16.50;99.90;;;15.83;100.00;97848.91;4992636;28;20043;-78
2023/05/23 08:38:04;;;;;;;5.53;4.45;;;16.50;99.90;;;15.40;100.00;97849.63;5000183;28;20050;-78
2023/05/23 08:40:33;;;;;;;6.25;4.47;;;16.50;99.90;;;15.58;100.00;97854.72;5012125;28;20064;-78
2023/05/23 08:43:01;;;;;;;7.63;4.25;;;16.40;99.90;;;15.62;100.00;97858.81;5011019;28;20136;-79
2023/05/23 08:45:29;;;;;;;4.75;3.67;;;16.40;99.90;;;15.81;100.00;97853.41;4998664;28;20053;-78
2023/05/23 08:48:00;;;;;;;5.57;4.03;;;16.30;99.90;;;15.73;100.00;97864.28;4977834;28;20050;-79
2023/05/23 08:50:29;;;;;;;4.60;3.67;;;16.50;99.90;;;15.47;100.00;97865.81;5007657;28;20054;-79
2023/05/23 08:52:58;;;;;;;5.95;3.80;;;16.50;99.90;;;15.73;100.00;97866.09;5006159;28;20046;-78
2023/05/23 08:55:27;;;;;;;6.20;4.43;;;16.50;99.90;;;16.16;100.00;97856.50;4994841;28;20176;-79
2023/05/23 08:58:00;;;;;;;6.22;4.05;;;16.70;99.90;;;16.75;100.00;97855.53;4988197;28;20134;-78
2023/05/23 09:00:29;;;;;;;5.63;3.88;;;17.00;99.90;;;16.87;100.00;97857.38;5013221;28;20052;-78
2023/05/23 09:02:56;;;;;;;5.45;3.55;;;17.30;99.90;;;16.82;100.00;97860.31;4986798;28;20502;-78
2023/05/23 09:05:25;;;;;;;4.60;3.50;;;17.50;99.90;;;17.17;100.00;97856.34;4990462;28;20128;-78
2023/05/23 09:07:53;;;;;;;4.88;4.07;;;17.70;99.90;;;16.83;100.00;97850.66;5007134;28;20065;-79
2023/05/23 09:10:21;;;;;;;6.30;3.40;;;17.90;99.90;;;17.75;100.00;97842.00;4985573;28;20070;-78
2023/05/23 09:12:48;;;;;;;4.80;3.50;;;18.10;99.90;;;17.66;100.00;97842.63;5011274;28;20064;-79
2023/05/23 09:15:15;;;;;;;5.47;4.07;;;18.20;99.90;;;17.92;100.00;97846.13;4998494;28;20046;-79
2023/05/23 09:17:45;;;;;;;4.60;3.67;;;18.30;99.90;;;18.06;100.00;97843.41;5004980;28;20046;-78
2023/05/23 09:20:16;;;;;;;4.03;2.80;;;18.50;99.90;;;17.46;100.00;97854.44;4995150;28;20144;-79
2023/05/23 09:22:47;;;;;;;3.85;2.92;;;18.60;99.90;;;17.62;100.00;97860.34;4993054;28;20148;-79
2023/05/23 09:25:14;;;;;;;4.55;3.40;;;18.50;99.90;;;17.54;100.00;97855.63;4995788;28;20058;-78
2023/05/23 09:27:42;;;;;;;3.75;2.97;;;18.40;99.90;;;17.75;100.00;97850.72;5000470;28;20429;-78
2023/05/23 09:30:13;;;;;;;12.10;3.05;;;18.30;99.90;;;17.78;100.00;97850.50;4999397;28;20148;-77
2023/05/23 09:32:56;;;;;;;5.40;3.05;;;18.40;99.90;;;17.34;100.00;97859.56;5010748;28;20050;-79
2023/05/23 09:35:24;;;;;;;3.63;2.30;;;18.30;99.90;;;17.34;100.00;97858.72;4998201;28;20046;-79
2023/05/23 09:37:54;;;;;;;4.57;2.78;;;18.30;99.90;;;17.35;100.00;97857.78;4993717;28;20054;-78
2023/05/23 09:40:22;;;;;;;3.72;2.85;;;18.20;99.90;;;16.85;100.00;97859.25;5008530;28;20178;-79
2023/05/23 09:42:50;;;;;;;5.30;2.63;;;18.20;99.90;;;16.71;100.00;97871.41;5000426;28;20108;-79
2023/05/23 09:45:17;;;;;;;5.65;2.80;;;18.00;99.90;;;16.89;100.00;97868.63;4982964;28;20049;-78
2023/05/23 09:47:51;;;;;;;4.18;3.03;;;17.80;99.90;;;16.92;100.00;97863.16;5014731;28;20054;-78
2023/05/23 09:50:20;;;;;;;6.47;3.00;;;17.70;99.90;;;16.86;100.00;97863.59;4990733;28;20633;-79
2023/05/23 09:52:48;;;;;;;3.53;2.70;;;17.80;99.90;;;16.79;100.00;97870.13;4993276;28;20046;-79
2023/05/23 09:55:15;;;;;;;4.22;2.58;;;17.70;99.90;;;16.89;100.00;97871.25;5009070;28;20046;-78
2023/05/23 09:57:44;;;;;;;4.00;2.72;;;17.60;99.90;;;17.03;100.00;97868.56;4994542;28;20061;-78
2023/05/23 10:00:13;;;;;;;3.33;2.67;;;17.70;99.90;;;17.12;100.00;97869.75;5001103;28;20223;-78
2023/05/23 10:03:12;;;;;;;3.50;2.50;;;17.90;99.90;;;17.06;100.00;97872.78;4990394;28;20105;-80
2023/05/23 10:05:46;;;;;;;4.28;3.00;;;17.90;99.90;;;16.85;100.00;97873.19;4994148;28;20085;-78
2023/05/23 10:08:37;;;;;;;3.20;2.42;;;17.90;99.90;;;16.84;100.00;97871.53;5016552;28;20076;-79
2023/05/23 10:11:12;;;;;;;4.13;2.72;;;17.80;99.90;;;17.01;100.00;97878.31;5007309;28;20081;-78
2023/05/23 10:13:44;;;;;;;4.78;2.53;;;17.80;99.90;;;17.08;100.00;97876.16;5006811;28;20052;-78